| time (UTC) | temp F | wind direction | speed MPH | gust MPH | rain 1hr in | rain 24hr in | rain mn in | humidity % | barometer mb |
| 20260506062004 | 41 | 239 | 6.0 | 15.0 | 0.00 | 0.00 | 0.00 | 61 | 1007.3 |
| 20260506061004 | 41 | 254 | 5.0 | 15.0 | 0.00 | 0.00 | 0.00 | 63 | 1007.1 |
| 20260506060505 | 40 | 243 | 6.0 | 15.0 | 0.00 | 0.00 | 0.00 | 63 | 1007.2 |
| 20260506051005 | 38 | 270 | 5.0 | 14.0 | 0.00 | 0.00 | 0.00 | 71 | 1006.7 |
| 20260506050503 | 38 | 267 | 6.0 | 14.0 | 0.00 | 0.00 | 0.00 | 71 | 1006.7 |
| 20260506045003 | 37 | 252 | 4.0 | 10.0 | 0.00 | 0.00 | 0.00 | 74 | 1006.6 |
| 20260506044006 | 37 | 258 | 5.0 | 12.0 | 0.00 | 0.00 | 0.00 | 74 | 1006.6 |
| 20260506043504 | 36 | 256 | 5.0 | 12.0 | 0.00 | 0.00 | 0.00 | 74 | 1006.6 |
| 20260506043005 | 36 | 254 | 5.0 | 11.0 | 0.00 | 0.00 | 0.00 | 74 | 1006.5 |
| 20260506042504 | 36 | 254 | 5.0 | 11.0 | 0.00 | 0.00 | 0.00 | 75 | 1006.5 |
| 20260506041504 | 35 | 254 | 5.0 | 10.0 | 0.00 | 0.00 | 0.00 | 76 | 1006.4 |
| 20260506040005 | 35 | 244 | 5.0 | 13.0 | 0.00 | 0.00 | 0.00 | 76 | 1006.2 |
| 20260506035504 | 35 | 244 | 4.0 | 13.0 | 0.00 | 0.00 | 0.00 | 76 | 1006.2 |
| 20260506035005 | 35 | 242 | 4.0 | 10.0 | 0.00 | 0.00 | 0.00 | 77 | 1006.2 |
| 20260506034504 | 35 | 242 | 5.0 | 10.0 | 0.00 | 0.00 | 0.00 | 77 | 1006.1 |
| 20260506034005 | 35 | 245 | 5.0 | 9.0 | 0.00 | 0.00 | 0.00 | 77 | 1006.0 |
| 20260506033504 | 34 | 243 | 4.0 | 10.0 | 0.00 | 0.00 | 0.00 | 78 | 1006.0 |
| 20260506033007 | 34 | 245 | 4.0 | 11.0 | 0.00 | 0.00 | 0.00 | 78 | 1005.8 |
| 20260506032504 | 34 | 250 | 4.0 | 11.0 | 0.00 | 0.00 | 0.00 | 78 | 1005.9 |
| 20260506031004 | 34 | 243 | 4.0 | 9.0 | 0.00 | 0.00 | 0.00 | 80 | 1005.7 |
| 20260506030505 | 33 | 242 | 4.0 | 8.0 | 0.00 | 0.00 | 0.00 | 80 | 1005.6 |
| 20260506030004 | 33 | 242 | 3.0 | 10.0 | 0.00 | 0.00 | 0.00 | 80 | 1005.5 |
| 20260506025504 | 33 | 235 | 3.0 | 10.0 | 0.00 | 0.00 | 0.00 | 80 | 1005.6 |
| 20260506025006 | 33 | 232 | 3.0 | 9.0 | 0.00 | 0.00 | 0.00 | 80 | 1005.6 |
| 20260506024504 | 33 | 237 | 3.0 | 9.0 | 0.00 | 0.00 | 0.00 | 80 | 1005.5 |
| 20260506023004 | 33 | 231 | 3.0 | 9.0 | 0.00 | 0.00 | 0.00 | 81 | 1005.4 |
| 20260506022505 | 33 | 229 | 3.0 | 9.0 | 0.00 | 0.00 | 0.00 | 81 | 1005.4 |
| 20260506022004 | 33 | 233 | 3.0 | 7.0 | 0.00 | 0.00 | 0.00 | 81 | 1005.3 |
| 20260506021505 | 33 | 238 | 3.0 | 7.0 | 0.00 | 0.00 | 0.00 | 81 | 1005.3 |
| 20260506021004 | 33 | 248 | 2.0 | 6.0 | 0.00 | 0.00 | 0.00 | 81 | 1005.3 |
| 20260506020504 | 33 | 238 | 3.0 | 9.0 | 0.00 | 0.00 | 0.00 | 81 | 1005.3 |
| 20260506020006 | 33 | 237 | 3.0 | 9.0 | 0.00 | 0.00 | 0.00 | 81 | 1005.2 |
| 20260506015504 | 33 | 244 | 3.0 | 7.0 | 0.00 | 0.00 | 0.00 | 81 | 1005.2 |
| 20260506015005 | 33 | 249 | 3.0 | 6.0 | 0.00 | 0.00 | 0.00 | 81 | 1005.2 |
| 20260506014504 | 33 | 259 | 2.0 | 7.0 | 0.00 | 0.00 | 0.00 | 81 | 1005.1 |
| 20260506014006 | 33 | 258 | 3.0 | 7.0 | 0.00 | 0.00 | 0.00 | 80 | 1005.1 |
| 20260506013004 | 33 | 236 | 2.0 | 5.0 | 0.00 | 0.00 | 0.00 | 80 | 1005.0 |
| 20260506012004 | 33 | 240 | 2.0 | 8.0 | 0.00 | 0.00 | 0.00 | 80 | 1004.9 |
| 20260506011004 | 33 | 244 | 3.0 | 7.0 | 0.00 | 0.00 | 0.00 | 79 | 1004.8 |
| 20260506010505 | 33 | 244 | 3.0 | 7.0 | 0.00 | 0.00 | 0.00 | 79 | 1004.8 |
| 20260506010004 | 33 | 246 | 2.0 | 7.0 | 0.00 | 0.00 | 0.00 | 78 | 1004.7 |
| 20260506005004 | 34 | 247 | 2.0 | 6.0 | 0.00 | 0.00 | 0.00 | 77 | 1004.6 |
| 20260506004505 | 34 | 252 | 2.0 | 4.0 | 0.00 | 0.00 | 0.00 | 77 | 1004.5 |
| 20260506004004 | 34 | 241 | 3.0 | 6.0 | 0.00 | 0.00 | 0.00 | 76 | 1004.5 |
| 20260506003505 | 34 | 229 | 3.0 | 6.0 | 0.00 | 0.00 | 0.00 | 76 | 1004.5 |
| 20260506003004 | 34 | 227 | 3.0 | 6.0 | 0.00 | 0.00 | 0.00 | 75 | 1004.5 |
| 20260506002505 | 34 | 231 | 3.0 | 5.0 | 0.00 | 0.00 | 0.00 | 74 | 1004.4 |
| 20260506002004 | 35 | 230 | 3.0 | 8.0 | 0.00 | 0.00 | 0.00 | 74 | 1004.4 |
| 20260506001505 | 35 | 234 | 3.0 | 8.0 | 0.00 | 0.00 | 0.00 | 73 | 1004.4 |
| 20260506001004 | 35 | 231 | 2.0 | 5.0 | 0.00 | 0.00 | 0.00 | 72 | 1004.3 |
| 20260506000505 | 35 | 218 | 2.0 | 5.0 | 0.00 | 0.00 | 0.00 | 71 | 1004.2 |
| 20260506000004 | 36 | 218 | 2.0 | 5.0 | 0.00 | 0.00 | 0.00 | 70 | 1004.2 |
| 20260505235506 | 36 | 228 | 3.0 | 7.0 | 0.00 | 0.00 | 0.00 | 69 | 1004.1 |
| 20260505235005 | 37 | 231 | 3.0 | 7.0 | 0.00 | 0.00 | 0.00 | 68 | 1004.1 |
| 20260505234504 | 37 | 229 | 4.0 | 8.0 | 0.00 | 0.00 | 0.00 | 68 | 1004.2 |
| 20260505234004 | 37 | 240 | 4.0 | 9.0 | 0.00 | 0.00 | 0.00 | 68 | 1004.0 |
| 20260505233505 | 37 | 258 | 3.0 | 9.0 | 0.00 | 0.00 | 0.00 | 68 | 1004.0 |
| 20260505231004 | 36 | 240 | 3.0 | 9.0 | 0.00 | 0.00 | 0.00 | 72 | 1003.9 |
| 20260505230004 | 36 | 244 | 4.0 | 9.0 | 0.00 | 0.00 | 0.00 | 74 | 1003.9 |
| 20260505225505 | 35 | 240 | 4.0 | 8.0 | 0.00 | 0.00 | 0.00 | 75 | 1003.9 |
| 20260505224504 | 35 | 237 | 4.0 | 9.0 | 0.00 | 0.00 | 0.00 | 75 | 1003.9 |
| 20260505224005 | 35 | 232 | 4.0 | 11.0 | 0.00 | 0.00 | 0.00 | 75 | 1004.0 |
| 20260505223504 | 36 | 235 | 4.0 | 11.0 | 0.00 | 0.00 | 0.00 | 75 | 1003.9 |
| 20260505223005 | 36 | 237 | 4.0 | 8.0 | 0.00 | 0.00 | 0.00 | 75 | 1003.9 |
| 20260505222504 | 36 | 229 | 4.0 | 8.0 | 0.00 | 0.00 | 0.00 | 75 | 1003.9 |
| 20260505222005 | 36 | 228 | 3.0 | 8.0 | 0.00 | 0.00 | 0.00 | 74 | 1003.9 |
| 20260505221504 | 36 | 229 | 3.0 | 8.0 | 0.00 | 0.00 | 0.00 | 74 | 1003.9 |
| 20260505221004 | 36 | 219 | 3.0 | 8.0 | 0.00 | 0.00 | 0.00 | 74 | 1003.9 |
| 20260505220505 | 36 | 215 | 3.0 | 7.0 | 0.00 | 0.00 | 0.00 | 73 | 1003.8 |
| 20260505220005 | 36 | 208 | 4.0 | 9.0 | 0.00 | 0.00 | 0.00 | 73 | 1003.7 |
| 20260505215504 | 36 | 203 | 4.0 | 9.0 | 0.00 | 0.00 | 0.00 | 72 | 1003.7 |
| 20260505214505 | 37 | 204 | 4.0 | 8.0 | 0.00 | 0.00 | 0.00 | 72 | 1003.6 |
| 20260505214004 | 37 | 207 | 4.0 | 8.0 | 0.00 | 0.00 | 0.00 | 71 | 1003.6 |
| 20260505213505 | 37 | 215 | 3.0 | 7.0 | 0.00 | 0.00 | 0.00 | 71 | 1003.6 |
| 20260505213004 | 37 | 214 | 3.0 | 6.0 | 0.00 | 0.00 | 0.00 | 71 | 1003.5 |
| 20260505212505 | 37 | 212 | 3.0 | 8.0 | 0.00 | 0.00 | 0.00 | 71 | 1003.5 |
| 20260505212004 | 37 | 222 | 4.0 | 9.0 | 0.00 | 0.00 | 0.00 | 70 | 1003.5 |
| 20260505211506 | 37 | 226 | 3.0 | 9.0 | 0.00 | 0.00 | 0.00 | 71 | 1003.5 |
| 20260505211004 | 37 | 217 | 3.0 | 7.0 | 0.00 | 0.00 | 0.00 | 70 | 1003.4 |
| 20260505210505 | 37 | 205 | 3.0 | 7.0 | 0.00 | 0.00 | 0.00 | 70 | 1003.5 |
| 20260505210006 | 38 | 205 | 3.0 | 7.0 | 0.00 | 0.00 | 0.00 | 69 | 1003.5 |
| 20260505205506 | 38 | 215 | 3.0 | 8.0 | 0.00 | 0.00 | 0.00 | 69 | 1003.4 |
| 20260505205004 | 38 | 215 | 4.0 | 8.0 | 0.00 | 0.00 | 0.00 | 68 | 1003.4 |
| 20260505204506 | 38 | 210 | 3.0 | 8.0 | 0.00 | 0.00 | 0.00 | 68 | 1003.4 |
| 20260505204004 | 38 | 221 | 3.0 | 8.0 | 0.00 | 0.00 | 0.00 | 67 | 1003.4 |
| 20260505203506 | 38 | 219 | 3.0 | 9.0 | 0.00 | 0.00 | 0.00 | 67 | 1003.4 |
| 20260505203004 | 38 | 211 | 3.0 | 9.0 | 0.00 | 0.00 | 0.00 | 66 | 1003.3 |
| 20260505202506 | 38 | 207 | 4.0 | 10.0 | 0.00 | 0.00 | 0.00 | 66 | 1003.3 |
| 20260505202004 | 39 | 206 | 4.0 | 10.0 | 0.00 | 0.00 | 0.00 | 65 | 1003.2 |
| 20260505201505 | 39 | 207 | 4.0 | 8.0 | 0.00 | 0.00 | 0.00 | 64 | 1003.2 |
| 20260505200506 | 39 | 219 | 2.0 | 6.0 | 0.00 | 0.00 | 0.00 | 61 | 1003.2 |
| 20260505200004 | 39 | 224 | 2.0 | 4.0 | 0.00 | 0.00 | 0.00 | 61 | 1003.2 |
| 20260505195506 | 40 | 224 | 2.0 | 6.0 | 0.00 | 0.00 | 0.00 | 60 | 1003.2 |
| 20260505195004 | 40 | 223 | 2.0 | 6.0 | 0.00 | 0.00 | 0.00 | 60 | 1003.2 |
| 20260505194506 | 40 | 231 | 2.0 | 5.0 | 0.00 | 0.00 | 0.00 | 59 | 1003.1 |
| 20260505194004 | 40 | 231 | 2.0 | 5.0 | 0.00 | 0.00 | 0.00 | 58 | 1003.2 |
| 20260505193506 | 41 | 221 | 2.0 | 5.0 | 0.00 | 0.00 | 0.00 | 57 | 1003.2 |
| 20260505193004 | 41 | 219 | 2.0 | 6.0 | 0.00 | 0.00 | 0.00 | 56 | 1003.1 |
| 20260505191506 | 42 | 246 | 3.0 | 9.0 | 0.00 | 0.00 | 0.00 | 54 | 1003.1 |
| 20260505191004 | 42 | 246 | 4.0 | 9.0 | 0.00 | 0.00 | 0.00 | 53 | 1003.1 |
| 20260505190506 | 42 | 237 | 5.0 | 12.0 | 0.00 | 0.00 | 0.00 | 53 | 1003.0 |
| 20260505190004 | 42 | 239 | 4.0 | 12.0 | 0.00 | 0.00 | 0.00 | 53 | 1003.1 |
| 20260505185506 | 42 | 244 | 4.0 | 7.0 | 0.00 | 0.00 | 0.00 | 52 | 1003.0 |
| 20260505185004 | 43 | 239 | 4.0 | 7.0 | 0.00 | 0.00 | 0.00 | 52 | 1003.0 |
| 20260505184506 | 43 | 235 | 4.0 | 8.0 | 0.00 | 0.00 | 0.00 | 51 | 1002.9 |
| 20260505184004 | 43 | 238 | 4.0 | 10.0 | 0.00 | 0.01 | 0.00 | 51 | 1002.9 |
| 20260505183508 | 43 | 237 | 4.0 | 10.0 | 0.00 | 0.01 | 0.00 | 50 | 1002.9 |
| 20260505183004 | 44 | 245 | 4.0 | 7.0 | 0.00 | 0.02 | 0.00 | 50 | 1002.8 |
| 20260505182506 | 44 | 264 | 4.0 | 10.0 | 0.00 | 0.02 | 0.00 | 49 | 1002.7 |
| 20260505182004 | 44 | 259 | 5.0 | 12.0 | 0.00 | 0.02 | 0.00 | 48 | 1002.7 |
| 20260505181506 | 44 | 253 | 5.0 | 12.0 | 0.00 | 0.02 | 0.00 | 47 | 1002.7 |
| 20260505181004 | 44 | 249 | 5.0 | 12.0 | 0.00 | 0.02 | 0.00 | 47 | 1002.7 |
| 20260505180004 | 45 | 258 | 5.0 | 10.0 | 0.00 | 0.02 | 0.00 | 46 | 1002.6 |
| 20260505175004 | 45 | 256 | 5.0 | 13.0 | 0.00 | 0.02 | 0.00 | 46 | 1002.5 |
| 20260505173506 | 46 | 257 | 6.0 | 13.0 | 0.00 | 0.02 | 0.00 | 45 | 1002.4 |
| 20260505173004 | 46 | 258 | 6.0 | 13.0 | 0.00 | 0.02 | 0.00 | 44 | 1002.4 |
| 20260505172506 | 46 | 260 | 6.0 | 13.0 | 0.00 | 0.02 | 0.00 | 43 | 1002.4 |
| 20260505172004 | 47 | 258 | 7.0 | 18.0 | 0.00 | 0.02 | 0.00 | 43 | 1002.3 |
| 20260505171506 | 47 | 249 | 7.0 | 18.0 | 0.00 | 0.02 | 0.00 | 42 | 1002.3 |
| 20260505170506 | 47 | 254 | 5.0 | 12.0 | 0.00 | 0.02 | 0.00 | 40 | 1002.2 |
| 20260505170004 | 48 | 254 | 6.0 | 14.0 | 0.00 | 0.02 | 0.00 | 40 | 1002.2 |
| 20260505165506 | 48 | 249 | 7.0 | 16.0 | 0.00 | 0.02 | 0.00 | 40 | 1002.2 |
| 20260505165004 | 48 | 246 | 7.0 | 16.0 | 0.00 | 0.02 | 0.00 | 40 | 1002.2 |
| 20260505164506 | 48 | 252 | 7.0 | 15.0 | 0.00 | 0.02 | 0.00 | 39 | 1002.2 |
| 20260505164004 | 48 | 263 | 7.0 | 22.0 | 0.00 | 0.02 | 0.00 | 39 | 1002.1 |
| 20260505163506 | 49 | 264 | 6.0 | 22.0 | 0.00 | 0.02 | 0.00 | 37 | 1002.1 |
| 20260505162506 | 49 | 261 | 4.0 | 14.0 | 0.00 | 0.02 | 0.00 | 39 | 1002.0 |
| 20260505162006 | 49 | 266 | 3.0 | 14.0 | 0.00 | 0.02 | 0.00 | 39 | 1002.0 |
| 20260505161506 | 49 | 273 | 4.0 | 12.0 | 0.00 | 0.02 | 0.00 | 39 | 1002.0 |
| 20260505161004 | 49 | 273 | 6.0 | 15.0 | 0.00 | 0.02 | 0.00 | 37 | 1001.9 |
| 20260505160506 | 49 | 272 | 5.0 | 15.0 | 0.00 | 0.02 | 0.00 | 37 | 1002.0 |
| 20260505153006 | 49 | 273 | 3.0 | 15.0 | 0.00 | 0.02 | 0.00 | 35 | 1001.7 |
| 20260505152504 | 49 | 272 | 4.0 | 15.0 | 0.00 | 0.02 | 0.00 | 35 | 1001.7 |
| 20260505152006 | 49 | 281 | 3.0 | 13.0 | 0.00 | 0.02 | 0.00 | 35 | 1001.7 |
| 20260505151504 | 49 | 314 | 2.0 | 12.0 | 0.00 | 0.02 | 0.00 | 34 | 1001.7 |
| 20260505151006 | 50 | 310 | 2.0 | 10.0 | 0.00 | 0.02 | 0.00 | 34 | 1001.6 |
| 20260505140506 | 50 | 283 | 4.0 | 12.0 | 0.00 | 0.02 | 0.00 | 38 | 1001.2 |
| 20260505125005 | 49 | 279 | 6.0 | 17.0 | 0.00 | 0.02 | 0.00 | 40 | 1000.8 |
| 20260505124504 | 49 | 271 | 7.0 | 17.0 | 0.00 | 0.02 | 0.00 | 38 | 1000.8 |
| 20260505124006 | 49 | 280 | 4.0 | 12.0 | 0.00 | 0.02 | 0.00 | 38 | 1000.7 |
| 20260505123504 | 49 | 275 | 5.0 | 16.0 | 0.00 | 0.02 | 0.00 | 40 | 1000.6 |
| 20260505123006 | 49 | 262 | 6.0 | 16.0 | 0.00 | 0.02 | 0.00 | 38 | 1000.4 |
| 20260505122504 | 49 | 261 | 6.0 | 18.0 | 0.00 | 0.02 | 0.00 | 42 | 1000.4 |
| 20260505122006 | 49 | 276 | 6.0 | 18.0 | 0.00 | 0.02 | 0.00 | 39 | 1000.5 |
| 20260505121006 | 48 | 265 | 7.0 | 19.0 | 0.00 | 0.02 | 0.00 | 40 | 1000.3 |
| 20260505120505 | 48 | 270 | 7.0 | 20.0 | 0.00 | 0.02 | 0.00 | 39 | 1000.3 |
| 20260505120006 | 48 | 281 | 6.0 | 20.0 | 0.00 | 0.02 | 0.00 | 39 | 1000.3 |
| 20260505115504 | 48 | 270 | 7.0 | 18.0 | 0.00 | 0.02 | 0.00 | 39 | 1000.3 |
| 20260505115006 | 48 | 265 | 8.0 | 18.0 | 0.00 | 0.02 | 0.00 | 39 | 1000.2 |
| 20260505114504 | 48 | 270 | 8.0 | 22.0 | 0.00 | 0.02 | 0.00 | 39 | 1000.2 |
| 20260505114006 | 48 | 278 | 5.0 | 22.0 | 0.00 | 0.02 | 0.00 | 39 | 1000.2 |
| 20260505113008 | 48 | 276 | 5.0 | 19.0 | 0.00 | 0.02 | 0.00 | 38 | 1000.1 |
| 20260505112504 | 48 | 268 | 6.0 | 16.0 | 0.00 | 0.02 | 0.00 | 38 | 999.9 |
| 20260505112004 | 48 | 269 | 6.0 | 16.0 | 0.00 | 0.02 | 0.00 | 38 | 999.9 |
| 20260505111506 | 48 | 286 | 4.0 | 12.0 | 0.00 | 0.02 | 0.00 | 38 | 999.8 |
| 20260505111004 | 47 | 306 | 3.0 | 12.0 | 0.00 | 0.02 | 0.00 | 38 | 999.8 |
| 20260505110504 | 47 | 300 | 3.0 | 13.0 | 0.00 | 0.02 | 0.00 | 39 | 999.8 |
| 20260505102006 | 47 | 255 | 7.0 | 14.0 | 0.00 | 0.02 | 0.00 | 43 | 999.3 |
| 20260505101005 | 47 | 255 | 6.0 | 16.0 | 0.00 | 0.02 | 0.00 | 42 | 999.1 |
| 20260505100504 | 47 | 252 | 7.0 | 16.0 | 0.00 | 0.02 | 0.00 | 44 | 999.1 |
| 20260505095506 | 47 | 279 | 3.0 | 19.0 | 0.00 | 0.02 | 0.00 | 44 | 998.9 |
| 20260505095005 | 47 | 295 | 4.0 | 17.0 | 0.00 | 0.02 | 0.00 | 45 | 998.9 |
| 20260505094506 | 47 | 290 | 4.0 | 17.0 | 0.00 | 0.02 | 0.00 | 46 | 998.9 |
| 20260505094004 | 46 | 288 | 4.0 | 13.0 | 0.00 | 0.02 | 0.00 | 48 | 998.8 |
| 20260505093506 | 46 | 272 | 5.0 | 15.0 | 0.00 | 0.02 | 0.00 | 48 | 998.8 |
| 20260505092506 | 46 | 253 | 7.0 | 16.0 | 0.00 | 0.02 | 0.00 | 51 | 998.6 |
| 20260505092004 | 45 | 246 | 7.0 | 14.0 | 0.00 | 0.02 | 0.00 | 50 | 998.7 |
| 20260505091506 | 45 | 255 | 7.0 | 14.0 | 0.00 | 0.02 | 0.00 | 52 | 998.6 |
| 20260505091004 | 44 | 266 | 6.0 | 14.0 | 0.00 | 0.02 | 0.00 | 53 | 998.6 |
| 20260505090506 | 45 | 276 | 5.0 | 19.0 | 0.00 | 0.02 | 0.00 | 51 | 998.4 |
| 20260505090005 | 44 | 274 | 6.0 | 19.0 | 0.00 | 0.02 | 0.00 | 53 | 998.5 |
| 20260505085506 | 45 | 281 | 4.0 | 12.0 | 0.00 | 0.02 | 0.00 | 54 | 998.5 |
| 20260505085004 | 45 | 278 | 5.0 | 15.0 | 0.00 | 0.02 | 0.00 | 54 | 998.3 |
| 20260505084506 | 45 | 262 | 7.0 | 22.0 | 0.00 | 0.02 | 0.00 | 54 | 998.4 |
| 20260505083506 | 45 | 250 | 8.0 | 16.0 | 0.00 | 0.02 | 0.00 | 57 | 998.3 |
| 20260505082505 | 44 | 273 | 5.0 | 14.0 | 0.00 | 0.02 | 0.00 | 59 | 998.1 |
| 20260505082004 | 44 | 260 | 5.0 | 14.0 | 0.00 | 0.02 | 0.00 | 58 | 998.0 |
| 20260505081506 | 43 | 262 | 5.0 | 14.0 | 0.00 | 0.02 | 0.00 | 61 | 998.0 |
| 20260505081004 | 43 | 270 | 5.0 | 14.0 | 0.00 | 0.02 | 0.00 | 59 | 998.0 |
| 20260505080505 | 44 | 264 | 5.0 | 14.0 | 0.00 | 0.02 | 0.00 | 59 | 997.9 |
| 20260505075506 | 44 | 251 | 9.0 | 17.0 | 0.00 | 0.02 | 0.00 | 59 | 997.7 |
| 20260505075004 | 44 | 256 | 9.0 | 17.0 | 0.00 | 0.02 | 0.00 | 60 | 997.7 |
| 20260505074004 | 43 | 258 | 7.0 | 19.0 | 0.00 | 0.02 | 0.00 | 61 | 997.7 |
| 20260505073506 | 43 | 253 | 6.0 | 15.0 | 0.00 | 0.02 | 0.00 | 63 | 997.7 |
| 20260505073005 | 42 | 262 | 8.0 | 15.0 | 0.00 | 0.02 | 0.00 | 64 | 997.7 |
| 20260505072006 | 42 | 253 | 6.0 | 13.0 | 0.00 | 0.02 | 0.00 | 67 | 997.5 |
| 20260505071504 | 42 | 252 | 7.0 | 15.0 | 0.00 | 0.02 | 0.00 | 66 | 997.6 |
| 20260505071006 | 42 | 257 | 7.0 | 15.0 | 0.00 | 0.02 | 0.00 | 67 | 997.5 |
| 20260505070506 | 42 | 264 | 6.0 | 15.0 | 0.00 | 0.02 | 0.00 | 69 | 997.5 |
| 20260505070005 | 42 | 260 | 7.0 | 15.0 | 0.00 | 0.02 | 0.00 | 69 | 997.5 |